Gambell Airport
PAGM : now visible

Airfield :











YOU CAN JOIN US ON...

 
LOGIN :

Register | Disclaimer

   EN    FR    IT 

 









Legend :    VFR   Marginal VFR   IFR   Intensive IFR   Very Intensive IFR
Visi :
Ceiling :
>= 8 km
>= 3000ft
5 to 8 km
1000 to 3000 ft
1500m to 5 km
500 to 1000 ft
800 to 1500m
200 to 500 ft
< 800m
< 200 ft
Symbols :   Thunderstorms  Fog  Heavy snow  Heavy precipitations  Wind > 20 kt






- Airport Elevation : 27 ft
- IATA code : GAM


PAGM - Gambell

CURRENT METAR :
  • 020733Z AUTO 18006KT 1 3/4SM -SN BR OVC003 M05/M06 A3000 RMK AO2 VIS 1/2V5 SNB33 CIG 002V005 P0000 FZRANO

EXPIRED METARs :
  • 020709Z AUTO 17007KT 10SM BKN005 M05/M06 A2999 RMK AO2 CIG 004V007 FZRANO
  • 020656Z AUTO 17007KT 10SM SCT007 M05/M06 A2999 RMK AO2 SLP160 T10501056 FZRANO
  • 020645Z AUTO 17007KT 10SM BKN007 M04/M06 A2999 RMK AO2 FZRANO
  • 020606Z AUTO 17006KT 10SM FEW009 M04/M06 A2998 RMK AO2 FZRANO
  • 020556Z AUTO 17006KT 10SM FEW033 M04/M05 A2998 RMK AO2 SNE25 SLP158 P0000 60000 T10391050 11017 21039 53001 FZRANO
  • 020542Z AUTO 20006KT 10SM FEW010 SCT015 BKN033 M03/M04 A2998 RMK AO2 SNE25 P0000 FZRANO
  • 020523Z AUTO 20008KT 9SM -SN SCT010 OVC015 M02/M03 A2997 RMK AO2 P0000 FZRANO
  • 020456Z AUTO 19008KT 9SM -SN OVC010 M02/M03 A2997 RMK AO2 CIG 007V012 SLP155 P0000 T10221033 FZRANO

TAF N/A



MET'MAP, your aeronautical weather chart ! - Copyright ORBIFLY December 2007 - Disclaimer

ORBIFLY MET'MAP TEAM :

Programming & Development : Alexandra Zaïnal
Concept & original design : Baudouin d'Aumeries
Assistance for programming : Marc-Olivier Méhu
Technical & hardware support : Manuel Goepfert

Contact : metmap@orbifly.com




SOURCES & CREDITS :

   NOAA       Earth
Advisory